createdAt,value
2023-05-04T00:00:31.586Z,100049.84
2023-05-04T00:03:33.567Z,100042.97
2023-05-04T00:06:35.486Z,100048.63
2023-05-04T00:09:37.736Z,100050.06
2023-05-04T00:12:40.313Z,100054.88
2023-05-04T00:15:42.458Z,100057.56
2023-05-04T00:18:44.370Z,100057.56
2023-05-04T00:21:46.587Z,100055.72
2023-05-04T00:24:48.601Z,100049.50
2023-05-04T00:27:50.532Z,100052.19
2023-05-04T00:30:56.290Z,100054.19
2023-05-04T00:33:58.461Z,100059.53
2023-05-04T00:37:01.166Z,100057.72
2023-05-04T00:40:03.325Z,100057.72
2023-05-04T00:43:05.496Z,100059.00
2023-05-04T00:46:07.969Z,100057.31
2023-05-04T00:49:11.264Z,100047.56
2023-05-04T00:52:14.726Z,100044.38
2023-05-04T00:55:18.192Z,100048.06
2023-05-04T00:58:21.261Z,100049.91
2023-05-04T01:01:24.857Z,100048.50
2023-05-04T01:04:26.987Z,100052.19
2023-05-04T01:07:48.073Z,100054.72
2023-05-04T01:10:57.004Z,100049.06
2023-05-04T01:14:01.476Z,100056.78
2023-05-04T01:17:06.782Z,100058.78
2023-05-04T01:20:09.664Z,100056.94
2023-05-04T01:23:11.769Z,100067.97
2023-05-04T01:26:29.118Z,100062.44
2023-05-04T01:29:56.021Z,100064.44
2023-05-04T01:33:02.493Z,100061.06
2023-05-04T01:36:04.631Z,100065.31
2023-05-04T01:39:06.923Z,100060.56
2023-05-04T01:42:08.859Z,100056.44
2023-05-04T01:45:11.414Z,100065.63
2023-05-04T01:48:13.317Z,100073.25
2023-05-04T01:51:15.188Z,100073.97
2023-05-04T01:54:17.121Z,100072.03
2023-05-04T01:57:19.058Z,100074.59
2023-05-04T02:00:21.116Z,100073.34
2023-05-04T02:03:23.175Z,100068.56
2023-05-04T02:06:25.531Z,100076.16
2023-05-04T02:09:27.415Z,100076.59
2023-05-04T02:12:29.445Z,100069.00
2023-05-04T02:15:31.626Z,100069.56
2023-05-04T02:18:33.553Z,100075.22
2023-05-04T02:21:35.920Z,100072.97
2023-05-04T02:24:40.388Z,100081.56
2023-05-04T02:27:42.578Z,100073.94
2023-05-04T02:30:44.570Z,100083.38
2023-05-04T02:33:46.517Z,100083.66
2023-05-04T02:36:49.592Z,100079.16
2023-05-04T02:39:51.513Z,100075.63
2023-05-04T02:42:53.548Z,100077.47
2023-05-04T02:45:55.476Z,100073.81
2023-05-04T02:48:57.416Z,100076.34
2023-05-04T02:51:59.274Z,100075.63
2023-05-04T02:55:03.321Z,100069.03
2023-05-04T02:58:05.222Z,100074.78
2023-05-04T03:01:07.225Z,100069.84
2023-05-04T03:04:09.223Z,100077.16
2023-05-04T03:07:11.807Z,100075.75
2023-05-04T03:10:13.772Z,100076.31
2023-05-04T03:13:16.721Z,100080.94
2023-05-04T03:16:19.103Z,100071.34
2023-05-04T03:19:22.179Z,100067.50
2023-05-04T03:22:24.177Z,100069.88
2023-05-04T03:25:26.317Z,100060.25
2023-05-04T03:28:29.052Z,100063.50
2023-05-04T03:31:31.454Z,100061.44
2023-05-04T03:34:33.730Z,100067.34
2023-05-04T03:37:38.934Z,100063.53
2023-05-04T03:40:40.901Z,100061.25
2023-05-04T03:43:42.865Z,100058.38
2023-05-04T03:46:46.014Z,100058.03
2023-05-04T03:49:47.991Z,100062.56
2023-05-04T03:52:50.310Z,100050.44
2023-05-04T03:55:54.605Z,100059.66
2023-05-04T03:58:57.083Z,100066.69
2023-05-04T04:02:03.316Z,100064.56
2023-05-04T04:05:06.617Z,100065.47
2023-05-04T04:08:10.219Z,100060.44
2023-05-04T04:11:12.166Z,100069.03
2023-05-04T04:14:13.989Z,100066.16
2023-05-04T04:17:15.850Z,100060.28
2023-05-04T04:20:17.761Z,100058.75
2023-05-04T04:23:19.758Z,100060.78
2023-05-04T04:26:21.717Z,100050.66
2023-05-04T04:29:23.601Z,100061.59
2023-05-04T04:32:25.601Z,100065.66
2023-05-04T04:35:27.659Z,100057.03
2023-05-04T04:38:29.667Z,100059.72
2023-05-04T04:41:32.257Z,100057.00
2023-05-04T04:44:34.890Z,100052.41
2023-05-04T04:47:36.820Z,100054.28
2023-05-04T04:50:40.029Z,100051.94
2023-05-04T04:53:41.953Z,100050.53
2023-05-04T04:56:45.084Z,100055.88
2023-05-04T04:59:47.326Z,100052.56
2023-05-04T05:02:49.299Z,100057.59
2023-05-04T05:05:51.733Z,100045.28
2023-05-04T05:08:53.622Z,100037.00
2023-05-04T05:11:55.474Z,100042.69
2023-05-04T05:14:57.448Z,100039.84
2023-05-04T05:17:59.338Z,100045.50
2023-05-04T05:21:01.457Z,100052.13
2023-05-04T05:24:03.418Z,100052.94
2023-05-04T05:27:05.346Z,100041.22
2023-05-04T05:30:07.996Z,100040.97
2023-05-04T05:33:10.387Z,100045.69
2023-05-04T05:36:12.322Z,100040.97
2023-05-04T05:39:14.229Z,100041.09
2023-05-04T05:42:16.459Z,100039.91
2023-05-04T05:45:19.353Z,100045.84
2023-05-04T05:48:21.201Z,100036.69
2023-05-04T05:51:23.147Z,100044.00
2023-05-04T05:54:25.382Z,100038.31
2023-05-04T05:57:27.606Z,100044.59
2023-05-04T06:00:29.601Z,100046.69
2023-05-04T06:03:31.665Z,100043.72
2023-05-04T06:06:33.762Z,100046.38
2023-05-04T06:09:35.640Z,100041.81
2023-05-04T06:12:37.559Z,100042.50
2023-05-04T06:15:39.477Z,100058.06
2023-05-04T06:18:41.354Z,100054.25
2023-05-04T06:21:43.301Z,100060.59
2023-05-04T06:24:45.138Z,100054.97
2023-05-04T06:27:47.477Z,100059.53
2023-05-04T06:30:49.443Z,100059.44
2023-05-04T06:33:51.419Z,100058.69
2023-05-04T06:36:53.333Z,100056.91
2023-05-04T06:39:55.233Z,100047.81
2023-05-04T06:42:57.128Z,100044.00
2023-05-04T06:46:03.348Z,100049.31
2023-05-04T06:49:05.664Z,100051.53
2023-05-04T06:52:07.620Z,100049.44
2023-05-04T06:55:09.694Z,100056.50
2023-05-04T06:58:11.750Z,100043.72
2023-05-04T07:01:15.308Z,100046.50
2023-05-04T07:04:23.328Z,100045.94
2023-05-04T07:07:25.354Z,100050.78
2023-05-04T07:10:28.629Z,100054.25
2023-05-04T07:13:30.521Z,100054.13
2023-05-04T07:16:33.190Z,100050.09
2023-05-04T07:19:35.091Z,100041.03
2023-05-04T07:22:36.984Z,100042.00
2023-05-04T07:25:38.848Z,100049.00
2023-05-04T07:28:44.016Z,100044.13
2023-05-04T07:31:46.263Z,100036.03
2023-05-04T07:34:48.290Z,100046.03
2023-05-04T07:37:50.800Z,100054.13
2023-05-04T07:40:56.325Z,100048.63
2023-05-04T07:43:58.261Z,100036.59
2023-05-04T07:47:01.935Z,100045.31
2023-05-04T07:50:05.010Z,100043.50
2023-05-04T07:53:08.109Z,100033.22
2023-05-04T07:56:12.418Z,100035.91
2023-05-04T07:59:17.306Z,100033.03
2023-05-04T08:02:19.152Z,100036.94
2023-05-04T08:05:21.342Z,100030.63
2023-05-04T08:08:23.098Z,100032.44
2023-05-04T08:11:24.953Z,100028.72
2023-05-04T08:14:26.843Z,100030.81
2023-05-04T08:17:29.783Z,100030.09
2023-05-04T08:20:32.630Z,100027.44
2023-05-04T08:23:34.860Z,100021.50
2023-05-04T08:26:39.697Z,100027.44
2023-05-04T08:29:41.853Z,100031.94
2023-05-04T08:32:43.867Z,100025.56
2023-05-04T08:35:46.169Z,100027.84
2023-05-04T08:38:48.159Z,100017.44
2023-05-04T08:41:50.126Z,100021.16
2023-05-04T08:44:52.088Z,100016.44
2023-05-04T08:47:54.226Z,100015.88
2023-05-04T08:50:57.858Z,100015.66
2023-05-04T08:54:00.850Z,100015.59
2023-05-04T08:57:04.852Z,100018.25
2023-05-04T09:00:08.804Z,100018.84
2023-05-04T09:03:12.187Z,100010.31
2023-05-04T09:06:15.270Z,100004.53
2023-05-04T09:09:17.425Z,99995.59
2023-05-04T09:12:19.527Z,100004.94
2023-05-04T09:15:22.033Z,99988.44
2023-05-04T09:18:24.070Z,100003.47
2023-05-04T09:21:30.696Z,99988.56
2023-05-04T09:24:32.599Z,99977.84
2023-05-04T09:27:34.565Z,99986.25
2023-05-04T09:30:36.497Z,99985.22
2023-05-04T09:33:38.422Z,99982.47
2023-05-04T09:36:40.996Z,99977.78
2023-05-04T09:39:57.622Z,99973.94
2023-05-04T09:43:01.129Z,99981.00
2023-05-04T09:46:03.397Z,99982.59
2023-05-04T09:49:05.417Z,99983.09
2023-05-04T09:52:07.253Z,99976.06
2023-05-04T09:55:13.617Z,99976.81
2023-05-04T09:58:16.894Z,99980.88
2023-05-04T10:01:18.947Z,99978.34
2023-05-04T10:04:21.062Z,99980.38
2023-05-04T10:07:23.419Z,99974.03
2023-05-04T10:10:25.786Z,99976.81
2023-05-04T10:13:28.210Z,99968.81
2023-05-04T10:16:57.253Z,99970.78
2023-05-04T10:20:17.417Z,99964.44
2023-05-04T10:23:34.144Z,99973.16
2023-05-04T10:27:04.138Z,99958.16
2023-05-04T10:30:07.807Z,99954.75
2023-05-04T10:33:10.023Z,99948.28
2023-05-04T10:36:11.959Z,99952.91
2023-05-04T10:39:21.369Z,99946.69
2023-05-04T10:42:23.317Z,99945.84
2023-05-04T10:45:34.523Z,99936.41
2023-05-04T10:48:36.654Z,99935.13
2023-05-04T10:51:48.667Z,99936.66
2023-05-04T10:55:02.344Z,99948.53
2023-05-04T10:58:04.368Z,99932.69
2023-05-04T11:01:11.769Z,99938.91
2023-05-04T11:04:21.611Z,99922.06
2023-05-04T11:07:37.622Z,99921.22
2023-05-04T11:10:40.027Z,99920.22
2023-05-04T11:13:49.099Z,99928.91
2023-05-04T11:16:51.160Z,99927.88
2023-05-04T11:19:53.280Z,99923.94
2023-05-04T11:22:55.094Z,99914.59
2023-05-04T11:25:57.555Z,99918.56
2023-05-04T11:28:59.531Z,99920.09
2023-05-04T11:32:01.454Z,99913.25
2023-05-04T11:35:05.104Z,99911.53
2023-05-04T11:38:07.733Z,99918.47
2023-05-04T11:41:09.948Z,99904.38
2023-05-04T11:44:12.201Z,99901.59
2023-05-04T11:47:14.956Z,99895.88
2023-05-04T11:50:19.550Z,99902.25
2023-05-04T11:53:23.282Z,99894.09
2023-05-04T11:56:25.450Z,99897.28
2023-05-04T11:59:27.387Z,99893.00
2023-05-04T12:02:29.325Z,99886.66
2023-05-04T12:05:31.858Z,99884.88
2023-05-04T12:08:35.540Z,99878.56
2023-05-04T12:11:38.511Z,99884.78
2023-05-04T12:14:47.711Z,99873.78
2023-05-04T12:17:49.625Z,99860.44
2023-05-04T12:20:51.538Z,99858.78
2023-05-04T12:23:53.504Z,99860.25
2023-05-04T12:26:55.511Z,99852.25
2023-05-04T12:33:36.174Z,99847.81
2023-05-04T12:36:38.052Z,99841.78
2023-05-04T12:39:39.993Z,99836.84
2023-05-04T12:42:42.464Z,99840.72
2023-05-04T12:45:44.412Z,99833.53
2023-05-04T12:48:46.286Z,99829.13
2023-05-04T12:51:48.253Z,99825.88
2023-05-04T12:54:50.029Z,99820.88
2023-05-04T12:57:52.091Z,99817.41
2023-05-04T13:00:54.166Z,99814.97
2023-05-04T13:03:56.095Z,99807.78
2023-05-04T13:06:57.808Z,99810.41
2023-05-04T13:09:59.888Z,99806.81
2023-05-04T13:13:01.777Z,99807.75
2023-05-04T13:16:03.619Z,99794.19
2023-05-04T13:19:05.517Z,99791.75
2023-05-04T13:22:07.403Z,99789.69
2023-05-04T13:25:09.494Z,99784.22
2023-05-04T13:28:11.514Z,99784.13
2023-05-04T13:31:13.576Z,99777.22
2023-05-04T13:34:15.461Z,99779.06
2023-05-04T13:37:18.756Z,99780.41
2023-05-04T13:40:20.694Z,99779.03
2023-05-04T13:43:22.488Z,99768.34
2023-05-04T13:46:24.489Z,99777.38
2023-05-04T13:49:26.447Z,99770.25
2023-05-04T13:52:28.287Z,99781.94
2023-05-04T13:55:30.238Z,99778.63
2023-05-04T13:58:32.055Z,99774.53
2023-05-04T14:01:33.980Z,99767.19
2023-05-04T14:04:38.815Z,99766.94
2023-05-04T14:07:41.655Z,99768.41
2023-05-04T14:10:43.541Z,99762.44
2023-05-04T14:13:45.812Z,99754.31
2023-05-04T14:16:48.018Z,99763.25
2023-05-04T14:19:49.895Z,99760.09
2023-05-04T14:22:51.805Z,99751.28
2023-05-04T14:25:55.842Z,99753.84
2023-05-04T14:28:57.805Z,99741.34
2023-05-04T14:31:59.567Z,99736.56
2023-05-04T14:35:08.598Z,99734.09
2023-05-04T14:38:11.117Z,99730.13
2023-05-04T14:41:14.371Z,99734.31
2023-05-04T14:44:16.586Z,99735.72
2023-05-04T14:47:19.597Z,99740.66
2023-05-04T14:50:21.911Z,99733.47
2023-05-04T14:53:24.223Z,99732.81
2023-05-04T14:56:27.580Z,99717.66
2023-05-04T14:59:29.420Z,99720.63
2023-05-04T15:02:31.368Z,99722.31
2023-05-04T15:05:33.135Z,99714.03
2023-05-04T15:08:35.001Z,99712.06
2023-05-04T15:11:36.838Z,99712.66
2023-05-04T15:14:38.739Z,99709.44
2023-05-04T15:17:40.616Z,99707.88
2023-05-04T15:20:42.535Z,99704.69
2023-05-04T15:23:44.302Z,99702.88
2023-05-04T15:26:46.442Z,99698.22
2023-05-04T15:29:48.310Z,99695.84
2023-05-04T15:32:50.175Z,99707.16
2023-05-04T15:35:52.059Z,99705.75
2023-05-04T15:38:54.098Z,99698.47
2023-05-04T15:41:55.863Z,99698.13
2023-05-04T15:44:57.817Z,99704.91
2023-05-04T15:48:00.328Z,99702.47
2023-05-04T15:51:02.336Z,99706.66
2023-05-04T15:54:04.315Z,99699.91
2023-05-04T15:57:06.252Z,99706.72
2023-05-04T16:00:09.156Z,99700.78
2023-05-04T16:03:11.436Z,99708.06
2023-05-04T16:06:13.335Z,99697.38
2023-05-04T16:09:20.280Z,99697.16
2023-05-04T16:12:22.263Z,99702.16
2023-05-04T16:15:24.223Z,99698.38
2023-05-04T16:18:26.154Z,99702.75
2023-05-04T16:21:28.110Z,99699.75
2023-05-04T16:24:29.904Z,99702.13
2023-05-04T16:27:31.828Z,99698.56
2023-05-04T16:30:34.433Z,99693.78
2023-05-04T16:33:36.450Z,99704.31
2023-05-04T16:36:38.362Z,99693.50
2023-05-04T16:39:40.167Z,99697.50
2023-05-04T16:42:43.112Z,99700.25
2023-05-04T16:45:45.057Z,99697.31
2023-05-04T16:48:46.997Z,99706.06
2023-05-04T16:51:48.918Z,99696.84
2023-05-04T16:54:50.881Z,99691.75
2023-05-04T16:57:56.553Z,99701.16
2023-05-04T17:00:58.559Z,99697.72
2023-05-04T17:04:00.498Z,99705.38
2023-05-04T17:07:02.725Z,99711.34
2023-05-04T17:10:05.155Z,99703.94
2023-05-04T17:13:07.683Z,99693.81
2023-05-04T17:16:09.994Z,99701.81
2023-05-04T17:19:11.825Z,99711.53
2023-05-04T17:22:13.666Z,99711.56
2023-05-04T17:25:15.682Z,99714.56
2023-05-04T17:28:17.521Z,99716.91
2023-05-04T17:31:19.407Z,99715.47
2023-05-04T17:34:21.372Z,99722.41
2023-05-04T17:37:23.966Z,99714.69
2023-05-04T17:40:27.760Z,99721.81
2023-05-04T17:43:30.430Z,99732.91
2023-05-04T17:46:32.379Z,99735.41
2023-05-04T17:49:34.259Z,99739.13
2023-05-04T17:52:36.570Z,99743.53
2023-05-04T17:55:38.524Z,99743.94
2023-05-04T17:58:40.665Z,99743.09
2023-05-04T18:01:42.657Z,99743.28
2023-05-04T18:04:44.605Z,99744.94
2023-05-04T18:07:46.662Z,99749.09
2023-05-04T18:10:48.721Z,99745.94
2023-05-04T18:13:51.534Z,99756.56
2023-05-04T18:16:53.437Z,99753.78
2023-05-04T18:19:58.196Z,99753.09
2023-05-04T18:23:00.238Z,99749.53
2023-05-04T18:26:02.120Z,99758.47
2023-05-04T18:29:17.411Z,99758.88
2023-05-04T18:32:21.090Z,99764.06
2023-05-04T18:35:24.099Z,99759.44
2023-05-04T18:38:26.642Z,99753.97
2023-05-04T18:41:28.731Z,99762.06
2023-05-04T18:44:30.623Z,99756.84
2023-05-04T18:47:32.793Z,99755.59
2023-05-04T18:50:34.737Z,99763.47
2023-05-04T18:53:36.658Z,99757.19
2023-05-04T18:56:38.596Z,99761.50
2023-05-04T18:59:41.019Z,99759.41
2023-05-04T19:02:42.965Z,99749.34
2023-05-04T19:05:44.887Z,99741.81
2023-05-04T19:08:46.762Z,99746.16
2023-05-04T19:11:48.703Z,99743.59
2023-05-04T19:14:51.270Z,99751.25
2023-05-04T19:17:53.185Z,99744.88
2023-05-04T19:20:55.033Z,99735.28
2023-05-04T19:23:56.898Z,99744.00
2023-05-04T19:27:00.366Z,99740.84
2023-05-04T19:30:02.189Z,99747.47
2023-05-04T19:33:05.698Z,99735.19
2023-05-04T19:36:07.792Z,99734.72
2023-05-04T19:39:13.385Z,99729.91
2023-05-04T19:42:15.288Z,99726.09
2023-05-04T19:45:17.383Z,99722.94
2023-05-04T19:48:21.517Z,99721.03
2023-05-04T19:51:23.444Z,99717.66
2023-05-04T19:54:25.342Z,99718.06
2023-05-04T19:57:27.988Z,99716.56
2023-05-04T20:00:29.825Z,99701.97
2023-05-04T20:03:31.782Z,99712.59
2023-05-04T20:06:33.878Z,99702.41
2023-05-04T20:09:35.907Z,99704.91
2023-05-04T20:12:37.751Z,99705.13
2023-05-04T20:15:39.716Z,99699.06
2023-05-04T20:18:41.795Z,99703.81
2023-05-04T20:21:43.662Z,99708.13
2023-05-04T20:24:45.589Z,99703.50
2023-05-04T20:27:48.759Z,99705.56
2023-05-04T20:30:50.868Z,99704.28
2023-05-04T20:33:52.774Z,99699.06
2023-05-04T20:36:54.658Z,99697.56
2023-05-04T20:39:56.668Z,99702.34
2023-05-04T20:42:58.582Z,99695.63
2023-05-04T20:46:00.604Z,99688.28
2023-05-04T20:49:03.015Z,99689.31
2023-05-04T20:52:05.244Z,99688.91
2023-05-04T20:55:08.048Z,99690.94
2023-05-04T20:58:10.015Z,99692.97
2023-05-04T21:01:11.976Z,99687.97
2023-05-04T21:04:15.066Z,99686.66
2023-05-04T21:07:17.041Z,99692.44
2023-05-04T21:10:19.916Z,99697.59
2023-05-04T21:13:21.824Z,99702.53
2023-05-04T22:45:59.175Z,99634.44
2023-05-04T22:49:01.894Z,99628.03
2023-05-04T22:52:05.815Z,99635.63
2023-05-04T22:55:10.239Z,99624.84
2023-05-04T22:58:17.341Z,99619.66
2023-05-04T23:02:24.920Z,99623.53
2023-05-04T23:05:45.729Z,99619.72
2023-05-04T23:08:47.629Z,99608.28
2023-05-04T23:11:49.624Z,99608.81
2023-05-04T23:14:52.510Z,99600.94
2023-05-04T23:17:54.422Z,99612.06
2023-05-04T23:20:56.274Z,99607.88
2023-05-04T23:23:58.233Z,99603.69
2023-05-04T23:27:00.132Z,99606.38
2023-05-04T23:30:02.041Z,99605.72
2023-05-04T23:33:04.021Z,99602.38
2023-05-04T23:36:06.528Z,99607.75
2023-05-04T23:39:08.660Z,99598.00
2023-05-04T23:42:10.608Z,99586.56
2023-05-04T23:45:12.447Z,99590.66
2023-05-04T23:48:14.316Z,99580.06
2023-05-04T23:51:16.100Z,99589.03
2023-05-04T23:54:18.035Z,99581.13
2023-05-04T23:57:19.893Z,99586.22
